Terminal Aerodrome Forecast
Issued by NWS

Home | Current Version | Previous Version | Text Only | Print | Product List | Glossary On
Versions: 1 2 3 4 5 6 7 8 9 10 11 12 13 14 15 16 17 18 19 20 21 22 23
000
FTUS44 KOHX 270500 AAF
TAFCKV
TAF AMD
KCKV 270507Z 2705/2724 27012G20KT P6SM OVC022
     FM270700 32008KT P6SM OVC015
     FM271400 32009KT P6SM BKN030
     FM271700 31010KT P6SM SCT030=

USA.gov is the U.S. government's official web portal to all federal, state and local government web resources and services.